Time;durP1;ratioP1;P1;durP2;ratioP2;P2;SDS_P1;SDS_P2;PMS_P1;PMS_P2;Temp;Humidity;BMP_temperature;BMP_pressure;BME280_temperature;BME280_humidity;BME280_pressure;Samples;Min_cycle;Max_cycle;Signal;HPM_P1;HPM_P2
2022/01/21 00:00:23;;;;;;;6.15;2.53;;;;;;;-0.62;88.94;100707.97;5590651;31;34008;-66
2022/01/21 00:03:26;;;;;;;5.68;2.37;;;;;;;-0.67;88.95;100713.44;5590664;31;34553;-67
2022/01/21 00:06:30;;;;;;;8.70;2.60;;;;;;;-0.61;88.55;100714.87;5590508;31;35143;-67
2022/01/21 00:09:33;;;;;;;6.90;2.37;;;;;;;-0.58;88.01;100717.31;5590452;31;34000;-66
2022/01/21 00:12:37;;;;;;;10.15;3.05;;;;;;;-0.53;87.84;100712.66;5590539;31;34195;-66
2022/01/21 00:15:39;;;;;;;6.72;2.50;;;;;;;-0.52;88.01;100717.78;5590374;31;34275;-67
2022/01/21 00:18:58;;;;;;;7.65;2.30;;;;;;;-0.47;86.75;100710.53;5590488;31;33902;-66
2022/01/21 00:32:06;;;;;;;5.55;2.00;;;;;;;-0.20;87.80;100728.09;5590385;31;33935;-67
2022/01/21 00:35:09;;;;;;;5.05;1.62;;;;;;;-0.35;87.50;100729.84;5590364;31;34588;-67
2022/01/21 00:38:14;;;;;;;9.10;2.20;;;;;;;-0.32;85.49;100714.00;5590711;31;33923;-67
2022/01/21 00:41:21;;;;;;;8.07;2.05;;;;;;;-0.29;85.55;100702.56;5590296;31;35289;-67
2022/01/21 00:44:24;;;;;;;9.23;2.17;;;;;;;-0.26;85.25;100713.66;5590298;31;34602;-66
2022/01/21 00:47:28;;;;;;;6.55;1.85;;;;;;;-0.19;85.43;100722.78;5590176;31;34796;-67
2022/01/21 00:50:31;;;;;;;4.05;1.30;;;;;;;-0.17;86.20;100725.28;5590188;31;34290;-67
2022/01/21 00:53:33;;;;;;;4.60;1.55;;;;;;;-0.24;88.59;100717.00;5590539;31;34044;-66
2022/01/21 00:56:36;;;;;;;5.78;1.87;;;;;;;-0.42;93.06;100707.66;5590497;31;34575;-66
2022/01/21 00:59:39;;;;;;;3.65;1.35;;;;;;;-0.59;94.75;100715.63;5590208;31;34503;-66
2022/01/21 01:02:42;;;;;;;5.40;1.40;;;;;;;-0.69;95.90;100710.12;5590182;31;33982;-66
2022/01/21 01:05:49;;;;;;;6.87;1.60;;;;;;;-0.76;95.74;100703.56;5590111;31;35160;-66
2022/01/21 01:08:53;;;;;;;5.82;1.20;;;;;;;-0.69;95.05;100715.31;5589994;31;33978;-66
2022/01/21 01:21:45;;;;;;;5.40;1.10;;;;;;;-0.62;90.32;100728.81;5590004;31;34652;-67
2022/01/21 01:28:10;;;;;;;4.18;1.30;;;;;;;-0.63;90.06;100708.94;5589885;31;34605;-66
2022/01/21 01:31:13;;;;;;;7.97;1.92;;;;;;;-0.71;91.29;100709.34;5576228;31;33874;-67
2022/01/21 01:34:16;;;;;;;3.80;0.98;;;;;;;-0.70;91.22;100713.62;5589835;31;34074;-67
2022/01/21 01:50:27;;;;;;;5.62;1.27;;;;;;;-0.73;90.62;100708.63;5589528;31;34836;-66
2022/01/21 01:53:42;;;;;;;3.17;1.00;;;;;;;-0.81;90.67;100709.97;5589698;31;35303;-67
2022/01/21 01:56:50;;;;;;;3.28;1.20;;;;;;;-0.72;89.35;100719.84;5575975;31;33954;-66
2022/01/21 01:59:52;;;;;;;2.60;0.80;;;;;;;-0.71;89.84;100729.34;5589689;31;33989;-67
2022/01/21 02:03:08;;;;;;;3.20;0.98;;;;;;;-0.73;89.47;100733.81;5589675;31;34034;-66
2022/01/21 02:06:11;;;;;;;4.10;1.17;;;;;;;-0.76;89.59;100731.38;5589528;31;33960;-67
2022/01/21 02:09:18;;;;;;;1.98;0.80;;;;;;;-0.81;90.09;100734.25;5589478;31;34328;-67
2022/01/21 02:12:20;;;;;;;3.17;1.05;;;;;;;-0.80;90.95;100725.50;5589477;31;34785;-66
2022/01/21 02:15:24;;;;;;;2.15;0.80;;;;;;;-0.77;90.90;100737.50;5589486;31;33910;-67
2022/01/21 02:21:49;;;;;;;3.33;0.90;;;;;;;-0.79;91.14;100727.19;5589309;31;33866;-67
2022/01/21 02:24:57;;;;;;;2.28;1.02;;;;;;;-0.79;91.43;100737.63;5576162;31;34374;-67
2022/01/21 02:28:00;;;;;;;4.00;1.40;;;;;;;-0.78;91.31;100725.44;5589410;31;35210;-68
2022/01/21 02:31:04;;;;;;;3.60;1.10;;;;;;;-0.83;92.16;100724.84;5575997;31;34123;-66
2022/01/21 02:34:08;;;;;;;5.60;0.85;;;;;;;-0.84;91.56;100721.41;5589197;31;34608;-66
2022/01/21 02:37:14;;;;;;;6.37;1.52;;;;;;;-0.96;92.48;100717.72;5589119;31;34003;-66
2022/01/21 02:40:18;;;;;;;5.12;1.15;;;;;;;-0.95;92.40;100711.59;5575442;31;33983;-66
2022/01/21 02:43:22;;;;;;;3.05;0.90;;;;;;;-1.00;92.90;100704.97;5589110;31;34653;-66
2022/01/21 02:46:26;;;;;;;4.18;0.90;;;;;;;-1.01;92.50;100703.28;5589569;31;33954;-67
2022/01/21 02:49:30;;;;;;;5.65;1.10;;;;;;;-1.08;93.20;100684.56;5588946;31;33926;-66
2022/01/21 02:52:41;;;;;;;4.10;1.00;;;;;;;-1.15;93.04;100687.59;5574310;31;34954;-66
2022/01/21 02:55:44;;;;;;;3.45;1.10;;;;;;;-1.12;92.56;100684.84;5588995;31;35174;-65
2022/01/21 02:58:47;;;;;;;2.22;0.82;;;;;;;-1.17;93.06;100713.72;5588876;31;34629;-66
2022/01/21 03:01:51;;;;;;;2.17;0.88;;;;;;;-1.08;92.50;100718.41;5588798;31;34651;-67
2022/01/21 03:05:14;;;;;;;2.90;1.02;;;;;;;-1.03;92.02;100728.56;5588880;31;33974;-66
2022/01/21 03:08:17;;;;;;;5.15;1.27;;;;;;;-1.08;91.63;100730.59;5588680;31;34004;-67
2022/01/21 03:11:25;;;;;;;2.83;1.02;;;;;;;-1.08;91.33;100730.59;5588669;31;34113;-68
2022/01/21 03:14:28;;;;;;;1.27;1.12;;;;;;;-1.03;90.79;100732.03;5574955;31;33877;-67
2022/01/21 03:17:31;;;;;;;3.47;1.20;;;;;;;-1.04;90.27;100732.09;5588589;31;34623;-66
2022/01/21 03:20:34;;;;;;;2.78;0.90;;;;;;;-0.94;90.49;100739.31;5588560;31;34166;-66
2022/01/21 03:23:37;;;;;;;5.18;1.20;;;;;;;-0.81;88.50;100733.41;5588215;31;35474;-66
2022/01/21 03:26:40;;;;;;;3.37;0.93;;;;;;;-0.78;88.03;100738.47;5588262;31;34217;-67
2022/01/21 03:29:44;;;;;;;3.53;0.98;;;;;;;-0.71;86.86;100731.94;5574305;31;33905;-67
2022/01/21 03:32:48;;;;;;;3.80;0.95;;;;;;;-0.63;85.43;100727.16;5588501;31;34014;-67
2022/01/21 03:35:53;;;;;;;2.67;0.80;;;;;;;-0.66;85.60;100724.72;5588166;31;34065;-68
2022/01/21 03:38:56;;;;;;;2.40;0.95;;;;;;;-0.79;84.70;100718.53;5588105;31;33976;-67
2022/01/21 03:41:59;;;;;;;2.15;0.70;;;;;;;-0.84;83.67;100704.94;5588094;31;34056;-67
2022/01/21 03:45:03;;;;;;;4.70;0.93;;;;;;;-0.81;83.24;100686.50;5588051;31;35336;-67
2022/01/21 03:48:06;;;;;;;2.83;1.00;;;;;;;-0.91;83.18;100712.25;5588262;31;33997;-66
2022/01/21 03:51:09;;;;;;;2.75;1.20;;;;;;;-1.01;83.81;100719.75;5574121;31;34003;-67
2022/01/21 03:54:12;;;;;;;2.83;1.20;;;;;;;-1.05;83.90;100725.22;5587760;31;34110;-67
2022/01/21 03:57:15;;;;;;;3.55;1.12;;;;;;;-1.03;83.33;100742.44;5588090;31;32642;-67
2022/01/21 04:00:22;;;;;;;4.40;1.17;;;;;;;-0.95;83.75;100749.81;5587637;31;33937;-67
2022/01/21 04:03:26;;;;;;;1.80;1.02;;;;;;;-1.06;85.06;100752.16;5587923;31;34640;-67
2022/01/21 04:06:29;;;;;;;3.22;0.95;;;;;;;-1.08;84.87;100751.44;5576429;31;34640;-67
2022/01/21 04:09:32;;;;;;;2.62;1.00;;;;;;;-1.21;86.22;100760.84;5590616;31;33996;-67
2022/01/21 04:12:35;;;;;;;1.27;0.95;;;;;;;-1.32;86.00;100767.47;5590562;31;34753;-67
2022/01/21 04:15:38;;;;;;;5.68;0.80;;;;;;;-1.29;85.70;100769.03;5590627;31;34270;-67
2022/01/21 04:18:41;;;;;;;3.58;1.58;;;;;;;-1.24;84.88;100787.00;5590493;31;35167;-67
2022/01/21 04:21:45;;;;;;;3.87;1.33;;;;;;;-1.36;84.63;100773.75;5590512;31;35180;-67
2022/01/21 04:24:49;;;;;;;5.95;1.55;;;;;;;-1.39;84.49;100776.50;5590328;31;34144;-67
2022/01/21 04:27:52;;;;;;;2.25;1.10;;;;;;;-1.40;84.55;100773.97;5590237;31;34322;-67
2022/01/21 04:30:56;;;;;;;3.65;1.40;;;;;;;-1.48;84.62;100773.56;5590407;31;33861;-67
2022/01/21 04:33:59;;;;;;;3.00;1.50;;;;;;;-1.56;84.79;100781.78;5576956;31;35219;-65
2022/01/21 04:37:09;;;;;;;3.50;1.40;;;;;;;-1.58;85.38;100791.41;5590397;31;34034;-67
2022/01/21 04:40:16;;;;;;;6.80;1.50;;;;;;;-1.57;84.26;100795.72;5576756;31;35211;-67
2022/01/21 04:50:09;;;;;;;3.28;1.42;;;;;;;-1.60;85.12;100803.69;5578608;31;34023;-66
2022/01/21 04:53:13;;;;;;;6.55;1.98;;;;;;;-1.66;86.01;100804.00;5577009;31;34126;-66
2022/01/21 04:56:16;;;;;;;4.10;1.80;;;;;;;-1.74;85.86;100813.13;5590094;31;33699;-65
2022/01/21 04:59:19;;;;;;;7.15;1.80;;;;;;;-1.77;86.00;100825.34;5590474;31;33901;-65
2022/01/21 05:02:23;;;;;;;5.35;1.67;;;;;;;-1.78;85.79;100817.63;5590088;31;34149;-65
2022/01/21 05:05:26;;;;;;;7.25;1.83;;;;;;;-1.82;86.95;100806.56;5590429;31;34011;-65
2022/01/21 05:12:08;;;;;;;5.85;1.87;;;;;;;-1.84;86.01;100799.75;5546280;31;34032;-66
2022/01/21 05:18:44;;;;;;;5.12;2.42;;;;;;;-1.95;86.42;100809.84;5561164;31;33849;-65
2022/01/21 05:21:53;;;;;;;5.60;1.87;;;;;;;-1.87;85.95;100812.91;5576876;31;34610;-65
2022/01/21 05:24:56;;;;;;;5.30;1.67;;;;;;;-1.82;85.35;100819.56;5589920;31;33874;-67
2022/01/21 05:27:59;;;;;;;3.60;1.77;;;;;;;-1.94;85.93;100802.00;5589474;31;34973;-67
2022/01/21 05:31:04;;;;;;;7.32;2.17;;;;;;;-1.90;85.62;100818.28;5590132;31;33813;-66
2022/01/21 05:34:08;;;;;;;5.93;1.67;;;;;;;-1.86;85.38;100831.03;5590156;31;34553;-67
2022/01/21 05:37:11;;;;;;;11.70;2.10;;;;;;;-1.78;84.75;100828.03;5589715;31;34009;-65
2022/01/21 05:40:15;;;;;;;2.60;1.48;;;;;;;-1.87;85.00;100826.75;5590163;31;33883;-66
2022/01/21 05:43:19;;;;;;;2.55;1.50;;;;;;;-1.83;84.74;100836.06;5590034;31;33938;-66
2022/01/21 05:46:26;;;;;;;4.72;1.70;;;;;;;-1.92;85.02;100833.94;5589666;31;33891;-66
2022/01/21 05:49:32;;;;;;;3.62;1.60;;;;;;;-1.93;85.27;100837.44;5589470;31;34082;-68
2022/01/21 05:52:41;;;;;;;8.20;2.03;;;;;;;-1.90;84.74;100844.28;5589389;31;34588;-67
2022/01/21 05:55:44;;;;;;;4.40;1.50;;;;;;;-1.88;84.55;100839.81;5589660;31;33939;-66
2022/01/21 05:58:47;;;;;;;5.47;1.83;;;;;;;-1.91;84.20;100858.19;5562805;31;34153;-67
2022/01/21 06:01:51;;;;;;;5.30;2.12;;;;;;;-1.96;84.65;100849.78;5589545;31;34003;-68
2022/01/21 06:04:55;;;;;;;8.18;1.92;;;;;;;-1.96;84.35;100855.81;5589417;31;34560;-69
2022/01/21 06:07:57;;;;;;;3.17;1.65;;;;;;;-2.03;84.63;100872.62;5589210;31;33966;-70
2022/01/21 06:11:00;;;;;;;3.90;1.92;;;;;;;-2.01;84.21;100863.00;5589269;31;34010;-69
2022/01/21 06:14:03;;;;;;;7.70;1.92;;;;;;;-2.06;84.87;100883.19;5589509;31;34604;-70
2022/01/21 06:17:10;;;;;;;5.45;1.80;;;;;;;-2.13;84.89;100884.37;5589436;31;34042;-69
2022/01/21 06:20:12;;;;;;;8.23;2.25;;;;;;;-2.15;85.14;100901.84;5589527;31;34635;-68
2022/01/21 06:23:15;;;;;;;4.93;1.80;;;;;;;-2.18;84.81;100898.56;5589244;31;33941;-69
2022/01/21 06:26:18;;;;;;;3.70;1.67;;;;;;;-2.18;84.89;100925.37;5575497;31;34641;-69
2022/01/21 06:29:21;;;;;;;7.00;2.00;;;;;;;-2.23;84.84;100922.97;5587985;31;34029;-68
2022/01/21 06:32:25;;;;;;;8.00;2.40;;;;;;;-2.29;85.02;100928.50;5588906;31;34707;-68
2022/01/21 06:35:33;;;;;;;4.20;1.73;;;;;;;-2.29;84.61;100945.84;5588964;31;33960;-69
2022/01/21 06:38:36;;;;;;;7.03;1.80;;;;;;;-2.26;83.98;100943.91;5588641;31;34604;-69
2022/01/21 06:41:40;;;;;;;5.35;2.00;;;;;;;-2.30;83.29;100957.97;5575388;31;35158;-70
2022/01/21 06:44:43;;;;;;;6.95;1.85;;;;;;;-2.35;82.95;100961.72;5589011;31;34586;-69
2022/01/21 06:47:46;;;;;;;4.47;1.85;;;;;;;-2.30;83.12;100955.37;5588882;31;34199;-67
2022/01/21 06:50:49;;;;;;;6.07;1.87;;;;;;;-2.34;83.11;100966.00;5575325;31;34387;-68
2022/01/21 06:53:52;;;;;;;5.10;1.65;;;;;;;-2.34;83.92;100960.81;5588753;31;34038;-69
2022/01/21 06:56:54;;;;;;;4.03;1.62;;;;;;;-2.32;82.84;100975.38;5588996;31;33966;-68
2022/01/21 06:59:57;;;;;;;2.65;1.55;;;;;;;-2.30;83.04;100988.31;5588398;31;34769;-69
2022/01/21 07:03:01;;;;;;;5.18;1.70;;;;;;;-2.34;83.16;100992.81;5588905;31;33906;-69
2022/01/21 07:06:04;;;;;;;7.85;1.83;;;;;;;-2.36;83.28;100986.84;5588478;31;34695;-68
2022/01/21 07:09:07;;;;;;;8.40;1.87;;;;;;;-2.40;84.12;101010.44;5588160;31;34766;-68
2022/01/21 07:12:10;;;;;;;6.90;1.95;;;;;;;-2.37;83.73;101020.72;5587889;31;34594;-68
2022/01/21 07:15:18;;;;;;;3.92;1.92;;;;;;;-2.36;83.92;101032.75;5588565;31;34051;-69
2022/01/21 07:18:21;;;;;;;5.68;2.40;;;;;;;-2.35;83.45;101037.91;5588189;31;34562;-69
2022/01/21 07:21:23;;;;;;;9.75;2.37;;;;;;;-2.37;83.89;101044.91;5588497;31;33944;-68
2022/01/21 07:24:26;;;;;;;5.37;1.73;;;;;;;-2.33;83.49;101050.84;5587796;31;34107;-69
2022/01/21 07:27:30;;;;;;;9.40;2.20;;;;;;;-2.34;83.62;101037.00;5574062;31;34678;-69
2022/01/21 07:30:33;;;;;;;12.45;2.10;;;;;;;-2.33;82.49;101037.84;5561089;31;34912;-69
2022/01/21 07:33:38;;;;;;;3.80;1.80;;;;;;;-2.24;82.27;101042.62;5587963;31;34654;-69
2022/01/21 07:36:41;;;;;;;7.12;2.08;;;;;;;-2.22;82.11;101028.62;5588181;31;34204;-69
2022/01/21 07:39:43;;;;;;;4.25;1.60;;;;;;;-2.22;81.63;101035.56;5589756;31;34029;-69
2022/01/21 07:42:46;;;;;;;4.57;1.70;;;;;;;-2.19;81.31;101053.66;5577145;31;33915;-69
2022/01/21 07:45:48;;;;;;;5.40;1.35;;;;;;;-2.21;81.12;101052.84;5590790;31;33966;-70
2022/01/21 07:48:51;;;;;;;5.65;1.73;;;;;;;-2.20;80.63;101060.59;5590811;31;34608;-68
2022/01/21 07:51:54;;;;;;;13.32;2.22;;;;;;;-2.16;80.69;101047.44;5590566;31;34585;-69
2022/01/21 07:54:57;;;;;;;6.57;2.50;;;;;;;-2.20;80.94;101047.59;5590672;31;34731;-68
2022/01/21 07:58:00;;;;;;;6.97;2.30;;;;;;;-2.18;80.65;101037.16;5576699;31;33965;-69
2022/01/21 08:01:03;;;;;;;4.82;1.92;;;;;;;-2.16;80.13;101052.66;5590345;31;35468;-69
2022/01/21 08:04:07;;;;;;;8.50;2.20;;;;;;;-2.15;80.17;101038.75;5576579;31;34033;-69
2022/01/21 08:07:11;;;;;;;7.12;2.17;;;;;;;-2.20;80.26;101050.19;5590950;31;35368;-68
2022/01/21 08:10:15;;;;;;;5.18;1.65;;;;;;;-2.17;79.80;101050.94;5590992;31;33879;-69
2022/01/21 08:13:20;;;;;;;3.47;1.80;;;;;;;-2.10;79.24;101044.56;5590455;31;33987;-68
2022/01/21 08:16:23;;;;;;;5.60;1.80;;;;;;;-2.09;79.32;101060.09;5576864;31;33928;-69
2022/01/21 08:19:26;;;;;;;7.25;2.00;;;;;;;-2.21;80.24;101052.84;5590532;31;34100;-69
2022/01/21 08:22:29;;;;;;;7.53;2.30;;;;;;;-2.18;80.26;101057.94;5590015;31;34542;-69
2022/01/21 08:25:31;;;;;;;4.97;1.73;;;;;;;-2.12;80.75;101065.44;5576458;31;35549;-68
2022/01/21 08:28:34;;;;;;;4.60;1.37;;;;;;;-2.03;80.30;101067.59;5590276;31;34135;-68
2022/01/21 08:31:40;;;;;;;9.07;1.95;;;;;;;-2.17;80.12;101072.59;5590144;31;34192;-68
2022/01/21 08:34:43;;;;;;;6.05;2.20;;;;;;;-1.98;79.77;101063.03;5590330;31;33919;-68
2022/01/21 08:37:45;;;;;;;5.68;1.80;;;;;;;-2.05;78.67;101069.44;5590290;31;34024;-66
2022/01/21 08:40:48;;;;;;;9.50;1.92;;;;;;;-1.97;78.97;101069.91;5589959;31;33891;-66
2022/01/21 08:43:51;;;;;;;9.18;1.50;;;;;;;-1.97;78.68;101077.72;5590496;31;33928;-67
2022/01/21 08:46:54;;;;;;;2.47;1.40;;;;;;;-1.88;77.58;101087.69;5590205;31;33913;-67
2022/01/21 08:50:17;;;;;;;7.25;2.05;;;;;;;-1.89;77.61;101086.00;5589529;31;34486;-66
2022/01/21 08:53:38;;;;;;;6.43;1.90;;;;;;;-1.85;76.28;101094.53;5590155;31;33917;-67
2022/01/21 08:56:42;;;;;;;5.72;1.52;;;;;;;-1.73;76.35;101091.31;5590095;31;33849;-65
2022/01/21 08:59:46;;;;;;;4.07;1.50;;;;;;;-1.66;75.98;101110.94;5590057;31;34759;-65
2022/01/21 09:02:51;;;;;;;2.58;1.20;;;;;;;-1.69;75.10;101111.06;5576069;31;34159;-65
2022/01/21 09:05:54;;;;;;;5.53;1.62;;;;;;;-1.65;74.46;101123.03;5590003;31;34750;-66
2022/01/21 09:08:57;;;;;;;3.75;1.48;;;;;;;-1.59;74.35;101114.09;5589782;31;34029;-67
2022/01/21 09:12:00;;;;;;;3.75;1.50;;;;;;;-1.45;73.73;101148.09;5589825;31;34402;-67
2022/01/21 09:15:06;;;;;;;5.62;1.45;;;;;;;-1.44;73.12;101115.97;5589951;31;34041;-66
2022/01/21 09:18:10;;;;;;;5.90;1.77;;;;;;;-1.33;73.03;101142.31;5590021;31;33902;-66
2022/01/21 09:21:15;;;;;;;3.95;1.67;;;;;;;-1.38;73.01;101136.50;5589763;31;34081;-66
2022/01/21 09:24:19;;;;;;;5.32;1.65;;;;;;;-1.32;72.80;101134.44;5576082;31;34036;-66
2022/01/21 09:27:21;;;;;;;5.62;1.45;;;;;;;-1.25;72.60;101128.91;5589952;31;33978;-65
2022/01/21 09:30:25;;;;;;;6.93;1.27;;;;;;;-1.15;70.82;101124.94;5589501;31;35231;-66
2022/01/21 09:33:28;;;;;;;4.80;1.58;;;;;;;-1.12;68.04;101125.66;5589758;31;34051;-65
2022/01/21 09:36:31;;;;;;;4.72;0.95;;;;;;;-1.18;67.50;101120.75;5589702;31;34597;-66
2022/01/21 09:39:33;;;;;;;4.32;1.15;;;;;;;-1.12;66.07;101110.03;5590015;31;34733;-66
2022/01/21 09:42:37;;;;;;;3.83;1.23;;;;;;;-1.12;65.18;101107.44;5589814;31;33902;-66
2022/01/21 09:45:40;;;;;;;3.05;1.00;;;;;;;-1.01;66.27;101117.31;5575909;31;34532;-67
2022/01/21 09:49:05;;;;;;;4.22;1.05;;;;;;;-0.98;65.29;101128.44;5589749;31;34056;-66
2022/01/21 09:52:11;;;;;;;6.00;1.33;;;;;;;-1.09;65.32;101122.06;5575956;31;34263;-65
2022/01/21 09:55:23;;;;;;;4.30;1.05;;;;;;;-1.01;66.53;101117.31;5589572;31;34104;-67
2022/01/21 09:58:27;;;;;;;4.32;0.98;;;;;;;-0.89;67.46;101121.91;5589584;31;33985;-66
2022/01/21 10:01:31;;;;;;;3.92;1.20;;;;;;;-0.81;67.01;101117.16;5589470;31;33924;-66
2022/01/21 10:04:41;;;;;;;5.72;1.35;;;;;;;-0.44;66.49;101129.97;5589274;31;34080;-66
2022/01/21 10:07:46;;;;;;;3.85;1.40;;;;;;;-0.52;66.34;101113.91;5589577;31;34250;-66
2022/01/21 10:10:50;;;;;;;5.90;1.52;;;;;;;-0.38;65.65;101113.16;5589126;31;33968;-66
2022/01/21 10:13:56;;;;;;;6.55;1.33;;;;;;;-0.43;67.05;101112.56;5589387;31;35210;-66
2022/01/21 10:17:00;;;;;;;5.35;1.20;;;;;;;-0.49;66.99;101107.69;5589168;31;34710;-65
2022/01/21 10:20:17;;;;;;;6.85;1.55;;;;;;;-0.23;66.91;101104.53;5575691;31;34259;-67
2022/01/21 10:23:20;;;;;;;3.47;1.33;;;;;;;-0.20;66.68;101098.34;5589303;31;33918;-67
2022/01/21 10:26:23;;;;;;;4.15;1.37;;;;;;;-0.30;67.08;101071.91;5581557;31;241482;-65
2022/01/21 10:29:39;;;;;;;3.80;1.15;;;;;;;-0.52;68.61;101095.66;5589406;31;34312;-65
2022/01/21 10:32:44;;;;;;;3.22;1.27;;;;;;;-0.57;69.57;101079.41;5590868;31;33955;-67
2022/01/21 10:36:23;;;;;;;5.50;1.60;;;;;;;-0.64;69.70;101064.19;5592945;31;34299;-65
2022/01/21 10:39:30;;;;;;;7.32;1.60;;;;;;;-0.85;71.53;101071.34;5592128;31;34126;-63
2022/01/21 10:42:34;;;;;;;6.82;1.50;;;;;;;-0.88;72.55;101074.13;5589057;31;34556;-67
2022/01/21 10:45:54;;;;;;;7.03;2.00;;;;;;;-0.91;73.05;101089.88;5588994;31;33845;-67
2022/01/21 10:49:01;;;;;;;5.53;1.70;;;;;;;-0.76;73.78;101086.50;5588825;31;35135;-67
2022/01/21 10:52:05;;;;;;;7.93;1.90;;;;;;;-0.39;71.70;101092.41;5588797;31;34261;-66
2022/01/21 10:55:34;;;;;;;4.32;1.70;;;;;;;-0.22;71.82;101100.19;5575155;31;34021;-69
2022/01/21 10:58:50;;;;;;;5.72;1.80;;;;;;;-0.34;71.57;101106.06;5588816;31;34143;-66
2022/01/21 11:01:59;;;;;;;7.80;2.10;;;;;;;-0.23;71.19;101125.41;5588540;31;35168;-66
2022/01/21 11:05:14;;;;;;;6.87;2.22;;;;;;;-0.12;70.62;101114.41;5574908;31;34464;-67
2022/01/21 11:08:23;;;;;;;5.50;2.20;;;;;;;-0.37;70.88;101117.47;5588556;31;34145;-66
2022/01/21 11:11:26;;;;;;;5.12;2.03;;;;;;;-0.36;70.78;101128.75;5588481;31;33954;-65
2022/01/21 11:14:29;;;;;;;8.48;2.33;;;;;;;-0.28;71.65;101119.59;5589511;31;34692;-67
2022/01/21 11:17:31;;;;;;;5.05;2.12;;;;;;;-0.03;71.29;101109.53;5590698;31;34002;-66
2022/01/21 11:20:40;;;;;;;8.52;2.12;;;;;;;0.15;69.96;101099.88;5591035;31;34241;-67
2022/01/21 11:23:43;;;;;;;7.18;2.30;;;;;;;0.35;69.34;101093.56;5591355;31;35202;-67
2022/01/21 11:27:08;;;;;;;7.85;2.10;;;;;;;0.36;69.62;101092.62;5576968;31;34570;-65
2022/01/21 11:30:11;;;;;;;7.43;1.92;;;;;;;0.29;69.70;101080.87;5590688;31;34573;-67
2022/01/21 11:33:15;;;;;;;4.80;1.62;;;;;;;0.15;69.69;101068.56;5577306;31;33875;-66
2022/01/21 11:36:18;;;;;;;7.35;2.12;;;;;;;0.06;70.87;101074.28;5590844;31;34616;-65
2022/01/21 11:39:24;;;;;;;8.23;2.00;;;;;;;0.06;71.38;101060.41;5589888;31;34496;-66
2022/01/21 11:42:27;;;;;;;9.10;2.08;;;;;;;0.18;69.96;101051.91;5577027;31;34044;-64
2022/01/21 11:51:43;;;;;;;6.40;1.87;;;;;;;0.25;69.76;101034.97;5590577;31;34654;-67
2022/01/21 11:54:47;;;;;;;5.05;1.70;;;;;;;0.38;68.75;101044.66;5577169;31;34261;-67
2022/01/21 11:57:49;;;;;;;6.93;1.70;;;;;;;0.36;68.46;101022.16;5590499;31;33967;-66
2022/01/21 12:00:52;;;;;;;5.65;1.80;;;;;;;0.10;69.37;101023.63;5590597;31;34167;-64
2022/01/21 12:03:55;;;;;;;10.20;2.15;;;;;;;0.01;69.67;101018.91;5590619;31;34089;-68
2022/01/21 12:07:00;;;;;;;8.18;2.05;;;;;;;0.05;68.91;101012.59;5590367;31;35196;-66
2022/01/21 12:10:05;;;;;;;9.80;2.15;;;;;;;0.21;68.93;101002.16;5590410;31;34586;-66
2022/01/21 12:13:15;;;;;;;6.53;1.90;;;;;;;0.22;68.40;101006.44;5590441;31;34674;-67
2022/01/21 12:17:16;;;;;;;9.57;1.90;;;;;;;0.32;67.70;101005.84;5590287;31;33970;-67
2022/01/21 12:20:11;;;;;;;5.97;2.30;;;;;;;0.76;67.22;100997.22;5589550;31;33888;-65
2022/01/21 12:23:19;;;;;;;6.65;1.80;;;;;;;1.25;65.41;101008.19;5590564;31;35140;-66
2022/01/21 12:26:27;;;;;;;6.45;1.95;;;;;;;1.22;65.34;101009.19;5589415;31;34545;-67
2022/01/21 12:29:29;;;;;;;10.18;1.65;;;;;;;1.06;65.10;101007.63;5590330;31;34080;-66
2022/01/21 12:32:52;;;;;;;8.50;2.33;;;;;;;1.01;65.31;101001.81;5590484;31;34008;-67
2022/01/21 12:36:02;;;;;;;7.78;1.55;;;;;;;1.08;65.32;101017.03;5590208;31;34659;-66
2022/01/21 12:39:37;;;;;;;7.12;1.60;;;;;;;1.26;64.45;101012.44;5590302;31;35225;-65
2022/01/21 12:42:39;;;;;;;6.47;1.42;;;;;;;0.78;64.43;101011.00;5589780;31;35152;-66
2022/01/21 12:46:00;;;;;;;5.57;1.90;;;;;;;0.58;65.79;101022.59;5590203;31;33903;-66
2022/01/21 12:49:47;;;;;;;5.78;1.73;;;;;;;0.95;66.07;101036.13;5590606;31;33997;-66
2022/01/21 12:56:06;;;;;;;6.75;1.70;;;;;;;0.76;65.66;101025.94;5491514;32;34129;-66
2022/01/21 12:59:15;;;;;;;5.10;1.52;;;;;;;0.75;66.11;101022.47;5491348;32;33996;-66
2022/01/21 13:02:25;;;;;;;5.85;1.48;;;;;;;0.80;64.80;101024.81;5491457;32;34096;-66
2022/01/21 13:05:38;;;;;;;8.15;1.70;;;;;;;0.66;64.17;101030.00;5491363;32;33850;-65
2022/01/21 13:09:07;;;;;;;5.95;1.48;;;;;;;0.74;64.23;101030.41;5491268;32;34032;-68
2022/01/21 13:12:13;;;;;;;9.75;1.95;;;;;;;0.78;63.83;101029.28;5491262;32;35083;-67
2022/01/21 13:15:16;;;;;;;5.82;1.20;;;;;;;0.58;62.47;101030.44;5491083;32;34702;-67
2022/01/21 13:18:23;;;;;;;4.55;1.37;;;;;;;0.31;63.19;101032.88;5491233;32;34677;-66
2022/01/21 13:21:27;;;;;;;7.25;1.62;;;;;;;0.19;63.38;101022.28;5491343;32;34254;-65
2022/01/21 13:24:34;;;;;;;6.07;1.48;;;;;;;0.31;62.98;101027.66;5491606;32;33742;-67
2022/01/21 13:27:48;;;;;;;3.62;1.30;;;;;;;0.67;61.68;101027.31;5578713;31;34473;-67
2022/01/21 13:30:51;;;;;;;3.58;1.17;;;;;;;0.64;60.83;101016.19;5589693;31;33866;-65
2022/01/21 13:34:22;;;;;;;2.80;1.20;;;;;;;0.85;60.93;101026.25;5575729;31;34018;-67
2022/01/21 13:37:24;;;;;;;9.77;1.62;;;;;;;0.78;60.32;101011.00;5575565;31;34019;-66
2022/01/21 13:40:30;;;;;;;10.52;1.60;;;;;;;0.71;60.65;101014.91;5576040;31;34162;-67
2022/01/21 13:43:34;;;;;;;5.93;1.40;;;;;;;0.60;59.92;101010.31;5589878;31;34372;-66
2022/01/21 13:46:39;;;;;;;3.83;1.08;;;;;;;0.46;60.83;101006.81;5589302;31;34142;-67
2022/01/21 13:49:47;;;;;;;2.92;1.25;;;;;;;0.50;61.33;101021.38;5589663;31;33938;-67
2022/01/21 13:52:52;;;;;;;6.22;1.37;;;;;;;0.42;61.57;101000.94;5589614;31;34107;-67
2022/01/21 13:55:57;;;;;;;5.03;1.23;;;;;;;0.49;62.01;101002.25;5576002;31;33870;-66
2022/01/21 13:59:00;;;;;;;1.83;1.02;;;;;;;0.59;61.86;100999.94;5589287;31;34242;-66
2022/01/21 14:02:10;;;;;;;5.43;1.40;;;;;;;0.68;61.48;101010.69;5589617;31;35240;-68
2022/01/21 14:05:13;;;;;;;5.40;1.37;;;;;;;0.70;60.62;100985.34;5589605;31;33967;-66
2022/01/21 14:08:19;;;;;;;7.25;1.52;;;;;;;0.67;61.14;101005.59;5589461;31;34509;-67
2022/01/21 14:11:27;;;;;;;6.53;1.40;;;;;;;0.63;60.52;100970.97;5575903;31;34664;-67
2022/01/21 14:14:30;;;;;;;5.75;1.70;;;;;;;0.45;60.75;100985.09;5589310;31;35235;-66
2022/01/21 14:17:34;;;;;;;7.60;1.75;;;;;;;0.33;61.40;100989.25;5589300;31;34199;-69
2022/01/21 14:20:39;;;;;;;14.15;1.95;;;;;;;0.25;61.14;100983.63;5575371;31;33924;-67
2022/01/21 14:23:44;;;;;;;6.82;1.77;;;;;;;0.24;60.52;100975.91;5589265;31;34263;-66
2022/01/21 14:26:57;;;;;;;3.87;1.30;;;;;;;0.23;59.86;100969.00;5589191;31;35243;-65
2022/01/21 14:30:04;;;;;;;6.82;1.77;;;;;;;0.10;61.34;100971.44;5589198;31;34081;-66
2022/01/21 14:33:09;;;;;;;8.20;1.80;;;;;;;0.08;61.65;100978.53;5589209;31;35248;-66
2022/01/21 14:36:15;;;;;;;7.95;1.60;;;;;;;0.07;61.68;100987.28;5589062;31;33929;-65
2022/01/21 14:39:20;;;;;;;5.37;1.52;;;;;;;0.05;61.88;100991.72;5575159;31;34429;-67
2022/01/21 14:42:26;;;;;;;6.47;1.17;;;;;;;0.06;61.02;100992.56;5575191;31;33937;-68
2022/01/21 14:45:30;;;;;;;6.07;1.55;;;;;;;0.07;61.21;100989.03;5589176;31;35237;-66
2022/01/21 14:48:33;;;;;;;7.25;1.65;;;;;;;0.02;61.35;100999.75;5587868;31;34289;-66
2022/01/21 14:51:47;;;;;;;4.47;1.70;;;;;;;0.02;60.58;101010.16;5575076;31;33955;-67
2022/01/21 14:55:10;;;;;;;6.43;1.52;;;;;;;0.07;60.27;101013.37;5588712;31;34102;-64
2022/01/21 14:58:23;;;;;;;10.02;1.65;;;;;;;-0.02;60.69;101017.34;5588792;31;34492;-67
2022/01/21 15:01:26;;;;;;;5.37;1.50;;;;;;;-0.04;58.64;101026.16;5574984;31;33889;-66
2022/01/21 15:04:38;;;;;;;8.05;1.90;;;;;;;-0.07;58.42;101023.72;5575372;31;33971;-66
2022/01/21 15:07:44;;;;;;;5.82;1.50;;;;;;;-0.09;58.26;101018.59;5588159;31;34043;-67
2022/01/21 15:10:51;;;;;;;5.18;1.42;;;;;;;-0.14;58.34;101023.22;5588690;31;34513;-66
2022/01/21 15:14:25;;;;;;;4.53;1.35;;;;;;;-0.18;58.59;101023.47;5574749;31;33914;-66
2022/01/21 15:17:28;;;;;;;3.55;1.30;;;;;;;-0.23;58.24;101030.69;5588229;31;33990;-67
2022/01/21 15:20:38;;;;;;;5.45;1.70;;;;;;;-0.23;58.28;101026.31;5587853;31;34563;-66
2022/01/21 15:23:41;;;;;;;4.63;1.60;;;;;;;-0.23;57.70;101028.94;5588173;31;34548;-65
2022/01/21 15:26:44;;;;;;;4.03;1.42;;;;;;;-0.36;58.65;101025.31;5588011;31;34516;-65
2022/01/21 15:29:47;;;;;;;5.75;1.73;;;;;;;-0.36;58.00;101043.56;5588036;31;34720;-66